Tiempo atmosférico en la estación meteorológica de Molina de Segura, Murcia (170 m.)



Fecha
DESCASC
Temp. máxima en grados centígrados (hora)
DESCASC
Temp. mínima en grados centígrados (hora)
DESCASC
Temp. media en grados centígrados
DESCASC
Racha de viento máxima en m/sg (hora)
DESCASC
Velocidad máxima media en intervalos de 10 minutos(hora)
DESCASC
Precipitaciones diarias en mm
DESCASC
Precipitaciones de 00:00 a 06:00 en mm
DESCASC
Precipitaciones de 06:00 a 12:00 en mm
DESCASC
Precipitaciones de 12:00 a 18:00 en mm
DESCASC
Precipitaciones de 18:00 a 24:00 en mm
DESCASC
13-10-2019 28.2 (16:30) 16.7 (08:50) 22.5 7.5 (18:20) 4.44 (17:50) 0 0 0 0 0
12-10-2019 26.4 (16:40) 17.5 (07:50) 21.9 7.22 (19:10) 4.17 (19:10) 0 0 0 0 0
10-10-2019 26.7 (15:50) 18.5 (00:00) 22.6 7.22 (12:30) 4.17 (15:50) 0 0 0 0 0
09-10-2019 27.3 (17:00) 14.8 (00:00) 21 5.83 (17:40) 3.89 (19:10) 0 0 0 0 0
08-10-2019 26.7 (15:20) 17.8 (00:00) 22.3 8.06 (15:20) 4.17 (18:10) 0 0 0 0 0
07-10-2019 30.9 (14:50) 17.8 (00:00) 24.3 11.11 (16:10) 6.94 (16:40) 0 0 0 0 0
06-10-2019 29 (16:40) 16.4 (00:00) 22.7 7.78 (17:30) 5 (18:00) 0 0 0 0 0
05-10-2019 28.8 (15:20) 16 (03:00) 22.4 8.06 (17:40) 5 (17:30) 0 0 0 0 0
04-10-2019 30.6 (16:50) 16.1 (00:00) 23.4 6.39 (05:40) 3.89 (10:30) 0 0 0 0 0
03-10-2019 29.9 (16:40) 16.2 (00:00) 23.1 9.17 (13:10) 6.11 (10:00) 0 0 0 0 0
02-10-2019 29.9 (16:40) 18.9 (00:00) 24.4 12.5 (10:50) 8.06 (10:40) 0 0 0 0 0
01-10-2019 33.2 (16:30) 19.7 (00:00) 26.5 10.28 (19:00) 6.39 (18:50) 0 0 0 0 0
30-09-2019 29.7 (14:20) 17.2 (00:00) 23.5 8.06 (18:20) 5 (18:20) 0 0 0 0 0
29-09-2019 30.7 (17:10) 17.2 (00:00) 24 6.94 (11:40) 4.17 (11:40) 0 0 0 0 0
28-09-2019 27.5 (16:10) 17.8 (00:00) 22.6 8.33 (12:10) 4.72 (12:10) 0 0 0 0 0
27-09-2019 31.3 (16:50) 18.3 (00:00) 24.8 7.22 (09:20) 4.44 (10:10) 0 0 0 0 0
26-09-2019 28.6 (16:20) 17.3 (00:00) 22.9 5.83 (16:30) 3.61 (19:00) 0 0 0 0 0
25-09-2019 32.2 (16:50) 19.5 (00:00) 25.9 10.28 (18:50) 5.83 (19:00) 0 0 0 0 0
24-09-2019 32 (18:50) 17 (00:00) 24.5 7.78 (10:30) 5.56 (11:40) 0 0 0 0 0
23-09-2019 28.9 (16:20) 18.8 (00:00) 23.8 11.11 (01:40) 7.5 (01:40) 0 0 0 0 0
22-09-2019 31.2 (17:20) 19.8 (00:00) 25.5 8.33 (23:59) 5.28 (23:59) 0 0 0 0 0
21-09-2019 27.4 (13:40) 20.3 (00:00) 23.8 5.28 (10:10) 3.33 (11:50) 0 0 0 0 0
20-09-2019 27.2 (14:10) 20.3 (00:00) 23.8 9.72 (14:50) 6.11 (15:40) 0 0 0 0 0
19-09-2019 27.8 (16:20) 16.9 (00:00) 22.3 6.39 (14:40) 3.89 (18:00) 0 0 0 0 0
18-09-2019 29.7 (15:50) 19.4 (00:00) 24.6 6.39 (18:00) 4.44 (18:10) 0 0 0 0 0
17-09-2019 26.8 (16:30) 19.9 (00:00) 23.3 7.22 (14:30) 3.89 (14:30) 0.2 0 0 0.2 0
16-09-2019 29.4 (15:40) 19.5 (00:00) 24.4 6.67 (17:40) 3.61 (17:20) 0 0 0 0 0
15-09-2019 29.2 (14:50) 19.7 (00:00) 24.5 7.22 (16:40) 5 (10:00) 0 0 0 0 0

Gráficas

Temp. máximas Temp. mínimas Temp. medias Precipitaciones Rachas de viento máximas Velocidades máximas media en intervalos de 10 minutos

Datos horarios

Fecha y hora oficial Temperatura (ºC) Velocidad del viento (km/h) Dirección del viento Racha (km/h) Dirección de racha Precipitación (mm) Presión (hPa) Tendencia (hPa) Humedad (%)
2019-10-14 23:00:00 21.1 16 Noroeste 27 Norte 0 -- -- 50
2019-10-14 22:00:00 22 16 Noroeste 31 Noroeste 0 -- -- 52
2019-10-14 21:00:00 20.1 4 Noroeste 22 Noroeste 0 -- -- 71
2019-10-14 20:00:00 21.6 16 Nordeste 28 Nordeste 0 -- -- 65
2019-10-14 19:00:00 23.4 9 Este 24 Este 0 -- -- 81
2019-10-14 18:00:00 25.5 9 Sudeste 21 Sudeste 0 -- -- 74
2019-10-14 17:00:00 26.4 11 Sudeste 20 Sudeste 0 -- -- 68
2019-10-14 16:00:00 26.6 11 Sudeste 26 Sudeste 0 -- -- 67
2019-10-14 15:00:00 25.5 5 Este 13 Sudeste 0 -- -- 68
2019-10-14 14:00:00 24.4 5 Sudeste 13 Este 0 -- -- 72
2019-10-14 13:00:00 23.2 7 Este 16 Este 0 -- -- 77
2019-10-14 12:00:00 22.1 5 Nordeste 19 Norte 0 -- -- 79
2019-10-14 11:00:00 20.9 17 Noroeste 24 Noroeste 0 -- -- 84
2019-10-14 10:00:00 19.6 13 Oeste 21 Noroeste 0 -- -- 94
2019-10-14 09:00:00 18.9 0 Calma 6 Sudeste 0 -- -- 97
2019-10-14 08:00:00 18.8 3 Norte 7 Noroeste 0 -- -- 96
2019-10-14 07:00:00 18.5 0 Calma 5 Noroeste 0 -- -- 97
2019-10-14 06:00:00 18.2 0 Calma 3 Este 0 -- -- 96
2019-10-14 05:00:00 18.3 0 Calma 9 Nordeste 0 -- -- 96
2019-10-14 04:00:00 18.6 2 Este 6 Este 0 -- -- 97
2019-10-14 03:00:00 17.9 3 Noroeste 7 Norte 0 -- -- 97
2019-10-14 02:00:00 17.6 4 Norte 5 Noroeste 0 -- -- 94
2019-10-14 01:00:00 18.7 3 Noroeste 5 Nordeste 0 -- -- 94
2019-10-14 00:00:00 19.4 2 Nordeste 5 Este 0 -- -- 94
2019-10-13 23:00:00 20.3 4 Este 13 Este 0 -- -- 92
2019-10-13 22:00:00 21 7 Este 21 Este 0 -- -- 91
2019-10-13 21:00:00 21.7 11 Este 18 Este 0 -- -- 89
2019-10-13 20:00:00 22.9 11 Este 20 Sudeste 0 -- -- 83
2019-10-13 19:00:00 24.9 13 Sudeste 27 Sudeste 0 -- -- 73
2019-10-13 18:00:00 26.7 15 Sudeste 25 Sudeste 0 -- -- 66
2019-10-13 17:00:00 27.9 12 Sur 23 Sudeste 0 -- -- 60
2019-10-13 16:00:00 27.9 9 Sudeste 22 Sudeste 0 -- -- 55
2019-10-13 15:00:00 27.2 10 Sudeste 19 Sudeste 0 -- -- 59
2019-10-13 14:00:00 25.9 4 Nordeste 18 Sudeste 0 -- -- 62
2019-10-13 13:00:00 24.9 6 Sudeste 13 Sudeste 0 -- -- 62
2019-10-13 12:00:00 22.9 3 Noroeste 8 Oeste 0 -- -- 73
2019-10-13 11:00:00 20.6 3 Norte 9 Noroeste 0 -- -- 84
2019-10-13 10:00:00 18.3 0 Calma 6 Norte 0 -- -- 96
2019-10-13 09:00:00 16.8 5 Noroeste 6 Noroeste 0 -- -- 95
2019-10-13 08:00:00 17.1 4 Noroeste 14 Noroeste 0 -- -- 93
2019-10-13 07:00:00 17.4 8 Norte 10 Norte 0 -- -- 94
2019-10-13 06:00:00 17.8 5 Noroeste 8 Noroeste 0 -- -- 93
2019-10-13 05:00:00 18.5 6 Norte 8 Norte 0 -- -- 92
2019-10-13 04:00:00 19.3 6 Norte 7 Norte 0 -- -- 91
2019-10-13 03:00:00 20 0 Calma 4 Nordeste 0 -- -- 89
2019-10-13 02:00:00 20.4 4 Este 8 Este 0 -- -- 90
2019-10-13 01:00:00 20.7 3 Sur 13 Este 0 -- -- 88
2019-10-13 00:00:00 20.8 3 Norte 9 Este 0 -- -- 88
2019-10-12 23:00:00 20.8 7 Este 15 Este 0 -- -- 88
2019-10-12 22:00:00 21.4 6 Este 11 Este 0 -- -- 87
2019-10-12 21:00:00 21.5 8 Este 18 Sudeste 0 -- -- 87
2019-10-12 20:00:00 22.5 12 Sudeste 26 Este 0 -- -- 82
2019-10-12 19:00:00 24.3 14 Este 23 Sudeste 0 -- -- 78
2019-10-12 18:00:00 25.6 10 Sudeste 16 Este 0 -- -- 68
2019-10-12 17:00:00 25.9 8 Sudeste 16 Sudeste 0 -- -- 68
2019-10-12 16:00:00 26.1 6 Este 17 Sudeste 0 -- -- 67
2019-10-12 15:00:00 25.6 9 Este 19 Sudeste 0 -- -- 69
2019-10-12 14:00:00 24.8 6 Sudeste 17 Sudeste 0 -- -- 70
2019-10-12 13:00:00 24.1 4 Sudeste 9 Sudeste 0 -- -- 74
2019-10-12 12:00:00 22.6 5 Norte 11 Norte 0 -- -- 76
2019-10-12 11:00:00 20.8 9 Norte 16 Noroeste 0 -- -- 80
2019-10-12 10:00:00 19.6 10 Noroeste 17 Noroeste 0 -- -- 86
2019-10-12 09:00:00 18.5 10 Norte 15 Norte 0 -- -- 89
2019-10-12 08:00:00 17.5 10 Norte 16 Norte 0 -- -- 92
2019-10-12 07:00:00 18.1 11 Norte 17 Norte 0 -- -- 90
2019-10-12 06:00:00 18.1 12 Norte 17 Noroeste 0 -- -- 91
2019-10-12 05:00:00 18.2 9 Norte 14 Norte 0 -- -- 91
2019-10-12 04:00:00 18.2 8 Norte 13 Norte 0 -- -- 92
2019-10-12 03:00:00 18.1 6 Norte 9 Norte 0 -- -- 93
2019-10-12 02:00:00 18.3 0 Calma 3 Sudoeste 0 -- -- 92
2019-10-12 01:00:00 18.5 0 Calma 5 Sudoeste 0 -- -- 91
2019-10-12 00:00:00 18.7 4 Nordeste 6 Nordeste 0 -- -- 92
2019-10-11 23:00:00 19.3 0 Calma 8 Nordeste 0 -- -- 88
2019-10-11 22:00:00 20 3 Este 10 Este 0 -- -- 87
2019-10-11 21:00:00 20.9 7 Este 13 Sudeste 0 -- -- 84
2019-10-11 20:00:00 21.8 8 Sudeste 21 Este 0 -- -- 80
2019-10-11 19:00:00 23 12 Este 24 Este 0 -- -- 75
2019-10-11 18:00:00 23.9 15 Este 28 Sudeste 0 -- -- 69
2019-10-11 17:00:00 25 15 Sudeste 28 Este 0 -- -- 64
2019-10-11 16:00:00 25.4 17 Este 27 Este 0 -- -- 60
2019-10-11 15:00:00 25.6 11 Sudeste 26 Este 0 -- -- 61
2019-10-11 14:00:00 24.4 13 Este 22 Sudeste 0 -- -- 66
2019-10-11 13:00:00 24.4 9 Sudeste 22 Sudeste 0 -- -- 68
2019-10-11 12:00:00 22.9 10 Este 20 Este 0 -- -- 74
2019-10-11 11:00:00 21.7 5 Sudeste 10 Este 0 -- -- 79
2019-10-11 10:00:00 19.4 5 Nordeste 9 Nordeste 0 -- -- 88
2019-10-11 09:00:00 17.1 5 Norte 8 Norte 0 -- -- 97
2019-10-11 08:00:00 16.4 5 Norte 6 Norte 0 -- -- 95
2019-10-11 07:00:00 16.8 0 Calma 5 Nordeste 0 -- -- 94
2019-10-11 06:00:00 17.6 3 Nordeste 5 Nordeste 0 -- -- 95
2019-10-11 05:00:00 17.3 4 Noroeste 6 Noroeste 0 -- -- 95
2019-10-11 04:00:00 17.6 3 Norte 5 Nordeste 0 -- -- 93
2019-10-11 03:00:00 17.8 0 Calma 4 Noroeste 0 -- -- 91
2019-10-11 02:00:00 18.9 0 Calma 10 Este 0 -- -- 89
2019-10-11 01:00:00 19.5 0 Calma 3 Nordeste 0 -- -- 89
2019-10-11 00:00:00 20.2 0 Calma 4 Este 0 -- -- 87
2019-10-10 23:00:00 20.5 2 Sudeste 10 Este 0 -- -- 87
2019-10-10 22:00:00 20.3 6 Este 13 Este 0 -- -- 87
2019-10-10 21:00:00 20.9 7 Este 14 Este 0 -- -- 83
2019-10-10 20:00:00 21.9 5 Sudeste 19 Este 0 -- -- 73
2019-10-10 19:00:00 23.7 13 Sudeste 23 Sudeste 0 -- -- 65
2019-10-10 18:00:00 24.4 13 Sudeste 24 Sudeste 0 -- -- 68
2019-10-10 17:00:00 25.3 13 Sudeste 24 Sudeste 0 -- -- 65
2019-10-10 16:00:00 26.5 15 Sudeste 26 Este 0 -- -- 58
2019-10-10 15:00:00 26.3 8 Sudeste 18 Sudeste 0 -- -- 57
2019-10-10 14:00:00 25.9 7 Sudeste 21 Sudeste 0 -- -- 60
2019-10-10 13:00:00 24.1 11 Sudeste 26 Este 0 -- -- 61
2019-10-10 12:00:00 23.9 9 Sudeste 20 Sudeste 0 -- -- 72
2019-10-10 11:00:00 22.2 9 Este 17 Sudeste 0 -- -- 81
2019-10-10 10:00:00 20.1 5 Sudeste 8 Sudeste 0 -- -- 92
2019-10-10 09:00:00 18.6 3 Nordeste 5 Nordeste 0 -- -- 95
2019-10-10 08:00:00 18.9 3 Este 4 Nordeste 0 -- -- 92
2019-10-10 07:00:00 19.8 0 Calma 4 Norte 0 -- -- 91
2019-10-10 06:00:00 20 0 Calma 8 Este 0 -- -- 92
2019-10-10 05:00:00 19.4 0 Calma 2 Oeste 0 -- -- 89
2019-10-10 04:00:00 19.4 3 Nordeste 5 Nordeste 0 -- -- 88
2019-10-10 03:00:00 19.5 0 Calma 4 Sur 0 -- -- 88
2019-10-10 02:00:00 19.4 0 Calma 5 Este 0 -- -- 88
2019-10-10 01:00:00 19.6 5 Este 12 Este 0 -- -- 87
2019-10-10 00:00:00 19.6 7 Este 12 Este 0 -- -- 88
2019-10-09 23:00:00 20 7 Este 18 Este 0 -- -- 85
2019-10-09 22:00:00 20.6 10 Este 19 Este 0 -- -- 82
2019-10-09 21:00:00 21.3 9 Este 16 Este 0 -- -- 80
2019-10-09 20:00:00 22.7 8 Este 21 Sudeste 0 -- -- 76
2019-10-09 19:00:00 24.9 13 Este 21 Sudeste 0 -- -- 67
2019-10-09 18:00:00 26.7 9 Este 21 Este 0 -- -- 60
2019-10-09 17:00:00 27.3 8 Sudeste 17 Este 0 -- -- 55
2019-10-09 16:00:00 26.8 7 Sudeste 20 Sudeste 0 -- -- 58
2019-10-09 15:00:00 26 6 Sudeste 14 Sudeste 0 -- -- 60
2019-10-09 14:00:00 25.3 6 Sudeste 13 Sur 0 -- -- 63
2019-10-09 13:00:00 23.4 4 Nordeste 10 Sudeste 0 -- -- 72
2019-10-09 12:00:00 22.1 3 Oeste 10 Sudeste 0 -- -- 73
2019-10-09 11:00:00 19.8 2 Noroeste 6 Oeste 0 -- -- 86
2019-10-09 10:00:00 17.3 0 Calma 6 Norte 0 -- -- 96
2019-10-09 09:00:00 15 2 Noroeste 5 Noroeste 0 -- -- 97
2019-10-09 08:00:00 15 3 Norte 6 Noroeste 0 -- -- 95
2019-10-09 07:00:00 15.1 3 Norte 8 Noroeste 0 -- -- 95
2019-10-09 06:00:00 15.3 4 Noroeste 6 Noroeste 0 -- -- 94
2019-10-09 05:00:00 15.7 3 Norte 5 Norte 0 -- -- 93
2019-10-09 04:00:00 16 3 Norte 4 Noroeste 0 -- -- 92
2019-10-09 03:00:00 16.4 4 Noroeste 6 Noroeste 0 -- -- 91
2019-10-09 02:00:00 16.7 5 Noroeste 7 Noroeste 0 -- -- 90
2019-10-09 01:00:00 17.1 2 Norte 5 Noroeste 0 -- -- 88
2019-10-09 00:00:00 17.8 3 Noroeste 5 Noroeste 0 -- -- 86
2019-10-08 23:00:00 18.7 3 Norte 5 Noroeste 0 -- -- 84
2019-10-08 22:00:00 20 2 Nordeste 8 Sudeste 0 -- -- 78
2019-10-08 21:00:00 21 5 Este 9 Sudeste 0 -- -- 75
2019-10-08 20:00:00 22.9 6 Sudeste 14 Sudeste 0 -- -- 69
2019-10-08 19:00:00 24.6 9 Sur 23 Sudeste 0 -- -- 63
2019-10-08 18:00:00 26.5 10 Sur 22 Sudeste 0 -- -- 59
2019-10-08 17:00:00 26 13 Sudeste 23 Sudeste 0 -- -- 62
2019-10-08 16:00:00 25.7 9 Sudeste 29 Sudeste 0 -- -- 61
2019-10-08 15:00:00 25.7 11 Sudeste 23 Sudeste 0 -- -- 61
2019-10-08 14:00:00 25.3 6 Este 20 Sudeste 0 -- -- 61
2019-10-08 13:00:00 24.8 5 Sudeste 10 Oeste 0 -- -- 66
2019-10-08 12:00:00 22.9 0 Calma 9 Sudeste 0 -- -- 75
2019-10-08 11:00:00 22.1 3 Sudeste 8 Sudeste 0 -- -- 80
2019-10-08 10:00:00 20.9 3 Este 6 Este 0 -- -- 84
2019-10-08 09:00:00 19.2 0 Calma 5 Nordeste 0 -- -- 89
2019-10-08 08:00:00 19.4 2 Este 5 Este 0 -- -- 87
2019-10-08 07:00:00 19.7 0 Calma -- -- 0 -- -- 87
2019-10-08 06:00:00 19.7 0 Calma -- -- 0 -- -- 85
2019-10-08 05:00:00 19.7 0 Calma -- -- 0 -- -- 85
2019-10-08 04:00:00 20 0 Calma -- -- 0 -- -- 84
2019-10-08 03:00:00 20 0 Calma 4 Este 0 -- -- 84
2019-10-08 02:00:00 19.7 0 Calma 3 Sudeste 0 -- -- 83
2019-10-08 01:00:00 20.1 0 Calma 7 Este 0 -- -- 81
2019-10-08 00:00:00 20.5 3 Este 8 Este 0 -- -- 80
2019-10-07 23:00:00 21.2 5 Nordeste 13 Este 0 -- -- 77
2019-10-07 22:00:00 21.5 8 Este 16 Este 0 -- -- 77
2019-10-07 21:00:00 21.2 8 Este 19 Este 0 -- -- 78
2019-10-07 20:00:00 22.3 10 Este 23 Sudeste 0 -- -- 75
2019-10-07 19:00:00 24.3 13 Sudeste 24 Este 0 -- -- 71
2019-10-07 18:00:00 25 13 Sudeste 31 Este 0 -- -- 70
2019-10-07 17:00:00 26.4 21 Este 40 Este 0 -- -- 64
2019-10-07 16:00:00 27.9 22 Este 35 Este 0 -- -- 57
2019-10-07 15:00:00 30.9 6 Sudeste 22 Noroeste 0 -- -- 33
2019-10-07 14:00:00 30.1 10 Noroeste 32 Noroeste 0 -- -- 30
2019-10-07 13:00:00 28.2 20 Noroeste 37 Noroeste 0 -- -- 32
2019-10-07 12:00:00 25.5 19 Noroeste 32 Oeste 0 -- -- 40
2019-10-07 11:00:00 24.1 19 Noroeste 33 Noroeste 0 -- -- 43
2019-10-07 10:00:00 22.4 22 Noroeste 35 Noroeste 0 -- -- 45
2019-10-07 09:00:00 18 5 Oeste 9 Oeste 0 -- -- 63
2019-10-07 08:00:00 18.6 8 Oeste 17 Sudoeste 0 -- -- 64
2019-10-07 07:00:00 19.1 11 Oeste 19 Oeste 0 -- -- 67
2019-10-07 06:00:00 19.6 8 Oeste 22 Oeste 0 -- -- 74
2019-10-07 05:00:00 19.4 8 Oeste 22 Oeste 0 -- -- 84
2019-10-07 04:00:00 19 6 Oeste 14 Oeste 0 -- -- 91
2019-10-07 03:00:00 19.6 5 Oeste 14 Oeste 0 -- -- 91
2019-10-07 02:00:00 20.1 10 Oeste 16 Noroeste 0 -- -- 92
2019-10-07 01:00:00 19.6 7 Noroeste 12 Noroeste 0 -- -- 95
2019-10-07 00:00:00 19.2 5 Noroeste 9 Noroeste 0 -- -- 92
2019-10-06 23:00:00 20 4 Norte 6 Este 0 -- -- 89
2019-10-06 22:00:00 20.8 5 Este 9 Este 0 -- -- 88
2019-10-06 21:00:00 21.7 5 Este 14 Este 0 -- -- 85
2019-10-06 20:00:00 22.9 10 Sudeste 21 Sudeste 0 -- -- 81
2019-10-06 19:00:00 24.6 13 Este 27 Este 0 -- -- 76
2019-10-06 18:00:00 26 18 Este 28 Este 0 -- -- 69
2019-10-06 17:00:00 28.8 13 Este 24 Este 0 -- -- 53
2019-10-06 16:00:00 28.6 7 Sudeste 17 Sudeste 0 -- -- 50
2019-10-06 15:00:00 28.2 6 Sudeste 17 Sudeste 0 -- -- 51
2019-10-06 14:00:00 26.7 4 Sudeste 11 Sudeste 0 -- -- 50
2019-10-06 13:00:00 24.7 4 Este 12 Nordeste 0 -- -- 58
2019-10-06 12:00:00 23.4 8 Sudeste 15 Noroeste 0 -- -- 63
2019-10-06 11:00:00 21.7 6 Noroeste 15 Oeste 0 -- -- 68
2019-10-06 10:00:00 19.3 4 Noroeste 9 Noroeste 0 -- -- 82
2019-10-06 09:00:00 17.2 8 Norte 14 Norte 0 -- -- 88
2019-10-06 08:00:00 16.4 8 Norte 13 Norte 0 -- -- 90
2019-10-06 07:00:00 17.5 10 Noroeste 19 Norte 0 -- -- 89
2019-10-06 06:00:00 17 3 Norte 17 Norte 0 -- -- 92
2019-10-06 05:00:00 17.3 7 Noroeste 13 Norte 0 -- -- 92
2019-10-06 04:00:00 18.5 5 Noroeste 17 Noroeste 0 -- -- 92
2019-10-06 03:00:00 19 11 Noroeste 19 Noroeste 0 -- -- 92
2019-10-06 02:00:00 18.8 5 Noroeste 10 Oeste 0 -- -- 96
2019-10-06 01:00:00 18.4 5 Noroeste 8 Norte 0 -- -- 93
2019-10-06 00:00:00 19.1 3 Norte 6 Norte 0 -- -- 91
2019-10-05 23:00:00 20.1 3 Nordeste 9 Este 0 -- -- 90
2019-10-05 22:00:00 21 5 Este 12 Este 0 -- -- 89
2019-10-05 21:00:00 21.6 6 Este 15 Este 0 -- -- 85
2019-10-05 20:00:00 22.8 12 Este 25 Este 0 -- -- 80
2019-10-05 19:00:00 24.5 15 Sudeste 27 Este 0 -- -- 68
2019-10-05 18:00:00 25.9 15 Este 29 Este 0 -- -- 57
2019-10-05 17:00:00 27.2 16 Este 26 Este 0 -- -- 46
2019-10-05 16:00:00 28.3 14 Sudeste 24 Este 0 -- -- 46
2019-10-05 15:00:00 28.3 9 Sudeste 18 Sudeste 0 -- -- 43
2019-10-05 14:00:00 27.4 9 Este 20 Sudeste 0 -- -- 44
2019-10-05 13:00:00 26.8 12 Sudeste 18 Sudeste 0 -- -- 43
2019-10-05 12:00:00 25 3 Sudeste 17 Norte 0 -- -- 43
2019-10-05 11:00:00 22.7 14 Noroeste 22 Noroeste 0 -- -- 50
2019-10-05 10:00:00 20.5 12 Noroeste 26 Noroeste 0 -- -- 54
2019-10-05 09:00:00 19 14 Noroeste 27 Noroeste 0 -- -- 56
2019-10-05 08:00:00 17.4 4 Noroeste 17 Noroeste 0 -- -- 62
2019-10-05 07:00:00 17.6 8 Noroeste 14 Noroeste 0 -- -- 63
2019-10-05 06:00:00 18.4 8 Noroeste 22 Noroeste 0 -- -- 62
2019-10-05 05:00:00 17.8 10 Noroeste 18 Noroeste 0 -- -- 65
2019-10-05 04:00:00 16.5 5 Oeste 14 Noroeste 0 -- -- 71
2019-10-05 03:00:00 16 6 Norte 10 Norte 0 -- -- 73
2019-10-05 02:00:00 16.4 6 Norte 8 Noroeste 0 -- -- 74
2019-10-05 01:00:00 16.9 5 Noroeste 7 Noroeste 0 -- -- 71
2019-10-05 00:00:00 18.2 3 Norte 7 Noroeste 0 -- -- 68
2019-10-04 23:00:00 19 6 Noroeste 8 Noroeste 0 -- -- 65
2019-10-04 22:00:00 19.8 5 Norte 8 Noroeste 0 -- -- 63
2019-10-04 21:00:00 21.8 3 Norte 5 Este 0 -- -- 55
2019-10-04 20:00:00 25.1 0 Calma 12 Sudeste 0 -- -- 45
2019-10-04 19:00:00 27.5 7 Sur 22 Sudeste 0 -- -- 39
2019-10-04 18:00:00 28.9 12 Sur 23 Sur 0 -- -- 40
2019-10-04 17:00:00 30.6 9 Sur 17 Sudeste 0 -- -- 30
2019-10-04 16:00:00 30 9 Sur 19 Sudeste 0 -- -- 33
2019-10-04 15:00:00 29.4 8 Sudeste 15 Sudeste 0 -- -- 31
2019-10-04 14:00:00 28.4 3 Oeste 11 Oeste 0 -- -- 33
2019-10-04 13:00:00 26.2 4 Noroeste 14 Noroeste 0 -- -- 39
2019-10-04 12:00:00 24.2 9 Noroeste 18 Noroeste 0 -- -- 44
2019-10-04 11:00:00 22.2 5 Noroeste 21 Noroeste 0 -- -- 48
2019-10-04 10:00:00 19.7 8 Noroeste 15 Noroeste 0 -- -- 53
2019-10-04 09:00:00 17 4 Oeste 14 Oeste 0 -- -- 59
2019-10-04 08:00:00 16.5 2 Norte 13 Noroeste 0 -- -- 59
2019-10-04 07:00:00 17.1 8 Noroeste 18 Noroeste 0 -- -- 57
2019-10-04 06:00:00 16.9 8 Noroeste 23 Noroeste 0 -- -- 58
2019-10-04 05:00:00 16.9 12 Noroeste 17 Noroeste 0 -- -- 59
2019-10-04 04:00:00 16.7 6 Noroeste 16 Noroeste 0 -- -- 63
2019-10-04 03:00:00 16.3 4 Noroeste 14 Norte 0 -- -- 66
2019-10-04 02:00:00 16.8 7 Noroeste 12 Noroeste 0 -- -- 74
2019-10-04 01:00:00 16.7 3 Noroeste 8 Sudoeste 0 -- -- 80
2019-10-04 00:00:00 17.2 0 Calma 9 Noroeste 0 -- -- 78
2019-10-03 23:00:00 17.7 3 Norte 7 Noroeste 0 -- -- 77
2019-10-03 22:00:00 19.4 4 Norte 5 Noroeste 0 -- -- 72
2019-10-03 21:00:00 21.5 3 Este 13 Este 0 -- -- 64
2019-10-03 20:00:00 23.7 5 Este 25 Este 0 -- -- 59
2019-10-03 19:00:00 28.1 11 Sudoeste 25 Sudoeste 0 -- -- 36
2019-10-03 18:00:00 29.5 6 Noroeste 24 Noroeste 0 -- -- 29
2019-10-03 17:00:00 29.6 8 Noroeste 24 Oeste 0 -- -- 30
2019-10-03 16:00:00 28.7 10 Oeste 27 Oeste 0 -- -- 32
2019-10-03 15:00:00 27.7 11 Noroeste 26 Noroeste 0 -- -- 35
2019-10-03 14:00:00 26.2 13 Oeste 33 Noroeste 0 -- -- 36
2019-10-03 13:00:00 24.8 18 Noroeste 31 Oeste 0 -- -- 37
2019-10-03 12:00:00 23.2 14 Noroeste 25 Oeste 0 -- -- 43
2019-10-03 11:00:00 21.4 16 Noroeste 29 Noroeste 0 -- -- 48
2019-10-03 10:00:00 19.3 22 Noroeste 30 Noroeste 0 -- -- 52
2019-10-03 09:00:00 16.9 3 Norte 25 Norte 0 -- -- 57
2019-10-03 08:00:00 17.2 9 Norte 23 Noroeste 0 -- -- 54
2019-10-03 07:00:00 17.3 16 Noroeste 22 Noroeste 0 -- -- 52
2019-10-03 06:00:00 17.9 14 Noroeste 19 Noroeste 0 -- -- 51
2019-10-03 05:00:00 17.3 12 Norte 17 Norte 0 -- -- 54
2019-10-03 04:00:00 17.6 12 Norte 17 Norte 0 -- -- 52
2019-10-03 03:00:00 17.2 14 Norte 19 Norte 0 -- -- 58
2019-10-03 02:00:00 17 2 Norte 15 Noroeste 0 -- -- 85
2019-10-03 01:00:00 18.2 4 Noroeste 8 Sudoeste 0 -- -- 89
2019-10-03 00:00:00 18.9 2 Noroeste 11 Noroeste 0 -- -- 86
2019-10-02 23:00:00 20 2 Nordeste 9 Este 0 -- -- 82
2019-10-02 22:00:00 21.5 4 Noroeste 16 Sudeste 0 -- -- 77
2019-10-02 21:00:00 23 3 Sudoeste 30 Este 0 -- -- 65
2019-10-02 20:00:00 25.8 17 Norte 32 Norte 0 -- -- 27
2019-10-02 19:00:00 28.2 9 Noroeste 33 Norte 0 -- -- 27
2019-10-02 18:00:00 28.4 18 Norte 32 Norte 0 -- -- 27
2019-10-02 17:00:00 29.7 10 Norte 32 Noroeste 0 -- -- 30
2019-10-02 16:00:00 29.1 15 Noroeste 29 Noroeste 0 -- -- 33
2019-10-02 15:00:00 27.9 14 Noroeste 28 Noroeste 0 -- -- 35
2019-10-02 14:00:00 27.3 18 Noroeste 33 Noroeste 0 -- -- 36
2019-10-02 13:00:00 26.2 18 Noroeste 30 Noroeste 0 -- -- 40
2019-10-02 12:00:00 25.2 19 Noroeste 32 Noroeste 0 -- -- 41
2019-10-02 11:00:00 23.8 21 Noroeste 45 Noroeste 0 -- -- 42
2019-10-02 10:00:00 22.6 16 Noroeste 32 Noroeste 0 -- -- 48
2019-10-02 09:00:00 21.4 10 Oeste 29 Oeste 0 -- -- 52
2019-10-02 08:00:00 21.8 13 Noroeste 32 Norte 0 -- -- 49
2019-10-02 07:00:00 20.8 6 Oeste 31 Oeste 0 -- -- 54
2019-10-02 06:00:00 21.9 8 Sudoeste 21 Sudoeste 0 -- -- 50
2019-10-02 05:00:00 22.1 5 Oeste 28 Noroeste 0 -- -- 49
2019-10-02 04:00:00 22.7 6 Noroeste 19 Noroeste 0 -- -- 48
2019-10-02 03:00:00 23.4 5 Sudeste 30 Oeste 0 -- -- 45
2019-10-02 02:00:00 24.3 12 Noroeste 32 Noroeste 0 -- -- 41
2019-10-02 01:00:00 24.9 19 Noroeste 34 Noroeste 0 -- -- 36
2019-10-02 00:00:00 24.8 18 Noroeste 25 Noroeste 0 -- -- 34
2019-10-01 23:00:00 25.4 14 Noroeste 25 Noroeste 0 -- -- 39
2019-10-01 22:00:00 25.8 17 Noroeste 24 Noroeste 0 -- -- 37
2019-10-01 21:00:00 27 15 Noroeste 31 Noroeste 0 -- -- 35
2019-10-01 20:00:00 27.9 17 Noroeste 32 Noroeste 0 -- -- 34
2019-10-01 19:00:00 30 23 Noroeste 37 Noroeste 0 -- -- 28
2019-10-01 18:00:00 31.6 16 Noroeste 27 Noroeste 0 -- -- 28
2019-10-01 17:00:00 32.9 13 Noroeste 25 Noroeste 0 -- -- 30
2019-10-01 16:00:00 32.3 17 Noroeste 29 Noroeste 0 -- -- 33
2019-10-01 15:00:00 31.4 18 Noroeste 32 Noroeste 0 -- -- 34
2019-10-01 14:00:00 30.3 20 Noroeste 36 Noroeste 0 -- -- 37
2019-10-01 13:00:00 27.2 14 Oeste 22 Oeste 0 -- -- 54
2019-10-01 12:00:00 24.2 9 Oeste 28 Oeste 0 -- -- 74
2019-10-01 11:00:00 21.7 8 Noroeste 22 Noroeste 0 -- -- 84
2019-10-01 10:00:00 20 11 Noroeste 20 Oeste 0 -- -- 91
2019-10-01 09:00:00 19.8 10 Oeste 16 Noroeste 0 -- -- 95
2019-10-01 08:00:00 19.8 5 Noroeste 17 Noroeste 0 -- -- 96
2019-10-01 07:00:00 20 13 Noroeste 19 Noroeste 0 -- -- 94
2019-10-01 06:00:00 20.3 6 Noroeste 11 Noroeste 0 -- -- 93
2019-10-01 05:00:00 20.5 4 Oeste 8 Oeste 0 -- -- 94
2019-10-01 04:00:00 20.4 2 Norte 9 Noroeste 0 -- -- 94
2019-10-01 03:00:00 20.2 3 Noroeste 5 Noroeste 0 -- -- 97
2019-10-01 02:00:00 20 2 Nordeste 4 Nordeste 0 -- -- 95
2019-10-01 01:00:00 20.2 0 Calma 2 Norte 0 -- -- 94
2019-10-01 00:00:00 20.7 0 Calma 9 Este 0 -- -- 94
2019-09-30 23:00:00 21.3 5 Este 14 Este 0 -- -- 94
2019-09-30 22:00:00 21.8 9 Este 17 Este 0 -- -- 92
2019-09-30 21:00:00 22.6 11 Este 18 Este 0 -- -- 88
2019-09-30 20:00:00 23.8 10 Este 25 Este 0 -- -- 82
2019-09-30 19:00:00 25.4 17 Este 29 Este 0 -- -- 72
2019-09-30 18:00:00 27 18 Este 27 Este 0 -- -- 64
2019-09-30 17:00:00 28.2 15 Este 26 Este 0 -- -- 58
2019-09-30 16:00:00 28.8 14 Este 25 Sudeste 0 -- -- 57
2019-09-30 15:00:00 29 12 Este 24 Este 0 -- -- 51
2019-09-30 14:00:00 29.1 11 Sudeste 19 Sudeste 0 -- -- 49
2019-09-30 13:00:00 27.8 6 Sur 12 Sudoeste 0 -- -- 52
2019-09-30 12:00:00 25.9 7 Noroeste 20 Noroeste 0 -- -- 56
2019-09-30 11:00:00 23.8 12 Noroeste 21 Noroeste 0 -- -- 61
2019-09-30 10:00:00 21.3 12 Noroeste 17 Noroeste 0 -- -- 74
2019-09-30 09:00:00 18.7 8 Noroeste 14 Noroeste 0 -- -- 85
2019-09-30 08:00:00 18.2 9 Noroeste 16 Norte 0 -- -- 86
2019-09-30 07:00:00 17.7 6 Noroeste 17 Noroeste 0 -- -- 89
2019-09-30 06:00:00 17.2 3 Noroeste 6 Norte 0 -- -- 95
2019-09-30 05:00:00 17.8 6 Noroeste 8 Noroeste 0 -- -- 96
2019-09-30 04:00:00 18.4 4 Noroeste 6 Noroeste 0 -- -- 96
2019-09-30 03:00:00 18.7 4 Noroeste 6 Norte 0 -- -- 94
2019-09-30 02:00:00 19.4 4 Norte 6 Noroeste 0 -- -- 94
2019-09-30 01:00:00 19.8 4 Norte 6 Noroeste 0 -- -- 93
2019-09-30 00:00:00 20.7 4 Norte 6 Sudeste 0 -- -- 91
2019-09-29 23:00:00 22 2 Sudeste 7 Este 0 -- -- 88
2019-09-29 22:00:00 23.2 3 Este 9 Este 0 -- -- 85
2019-09-29 21:00:00 24.7 4 Este 8 Sudeste 0 -- -- 81
2019-09-29 20:00:00 26.4 5 Este 16 Este 0 -- -- 74
2019-09-29 19:00:00 28.8 12 Este 18 Sudeste 0 -- -- 64
2019-09-29 18:00:00 30.3 9 Sudeste 16 Sudeste 0 -- -- 53
2019-09-29 17:00:00 30.6 8 Sudeste 15 Sudeste 0 -- -- 53
2019-09-29 16:00:00 29.9 9 Sur 17 Sudeste 0 -- -- 53
2019-09-29 15:00:00 29.2 4 Sudoeste 12 Sudoeste 0 -- -- 55
2019-09-29 14:00:00 27.9 5 Sur 14 Sur 0 -- -- 59
2019-09-29 13:00:00 25.9 8 Oeste 22 Oeste 0 -- -- 68
2019-09-29 12:00:00 23.7 12 Noroeste 25 Oeste 0 -- -- 75
2019-09-29 11:00:00 22 14 Noroeste 23 Noroeste 0 -- -- 83
2019-09-29 10:00:00 20.4 8 Noroeste 21 Noroeste 0 -- -- 91
2019-09-29 09:00:00 17.5 2 Sudoeste 6 Oeste 0 -- -- 98
2019-09-29 08:00:00 17.4 5 Noroeste 8 Noroeste 0 -- -- 97
2019-09-29 07:00:00 17.9 0 Calma 5 Nordeste 0 -- -- 97
2019-09-29 06:00:00 18 4 Noroeste 9 Norte 0 -- -- 96
2019-09-29 05:00:00 18.3 2 Norte 6 Noroeste 0 -- -- 96
2019-09-29 04:00:00 18.7 5 Noroeste 6 Norte 0 -- -- 95
2019-09-29 03:00:00 19.3 3 Noroeste 5 Noroeste 0 -- -- 93
2019-09-29 02:00:00 20.4 3 Norte 5 Noroeste 0 -- -- 93
2019-09-29 01:00:00 21 3 Noroeste 4 Oeste 0 -- -- 93
2019-09-29 00:00:00 21.1 4 Sudeste 9 Este 0 -- -- 92
2019-09-28 23:00:00 21.1 4 Este 9 Este 0 -- -- 93
2019-09-28 22:00:00 21.6 7 Este 16 Este 0 -- -- 90
2019-09-28 21:00:00 22.5 9 Este 17 Este 0 -- -- 88
2019-09-28 20:00:00 23.7 10 Este 19 Sudeste 0 -- -- 82
2019-09-28 19:00:00 25 12 Este 24 Este 0 -- -- 74
2019-09-28 18:00:00 25.8 14 Este 24 Este 0 -- -- 71
2019-09-28 17:00:00 26.8 13 Este 28 Este 0 -- -- 66
2019-09-28 16:00:00 27.3 14 Este 24 Este 0 -- -- 61
2019-09-28 15:00:00 27 11 Sudeste 24 Este 0 -- -- 67
2019-09-28 14:00:00 26.9 11 Este 22 Sudeste 0 -- -- 65
2019-09-28 13:00:00 25.7 12 Sudeste 30 Sudeste 0 -- -- 68
2019-09-28 12:00:00 23.8 15 Este 27 Este 0 -- -- 79
2019-09-28 11:00:00 23 10 Este 17 Este 0 -- -- 80
2019-09-28 10:00:00 20.8 7 Noroeste 13 Norte 0 -- -- 82
2019-09-28 09:00:00 18.7 8 Noroeste 11 Noroeste 0 -- -- 92
2019-09-28 08:00:00 17.9 5 Oeste 14 Noroeste 0 -- -- 94
2019-09-28 07:00:00 18.3 6 Oeste 10 Oeste 0 -- -- 97
2019-09-28 06:00:00 18.1 4 Oeste 7 Noroeste 0 -- -- 97
2019-09-28 05:00:00 18 6 Noroeste 7 Noroeste 0 -- -- 96
2019-09-28 04:00:00 18.1 4 Norte 6 Norte 0 -- -- 95
2019-09-28 03:00:00 18.8 3 Noroeste 5 Noroeste 0 -- -- 94
2019-09-28 02:00:00 19.3 3 Noroeste 5 Noroeste 0 -- -- 94
2019-09-28 01:00:00 20 3 Nordeste 5 Este 0 -- -- 92
2019-09-28 00:00:00 20.8 4 Sudeste 8 Este 0 -- -- 90
2019-09-27 23:00:00 21.5 3 Nordeste 12 Este 0 -- -- 90
2019-09-27 22:00:00 22.4 8 Este 17 Este 0 -- -- 87
2019-09-27 21:00:00 23.6 10 Este 18 Este 0 -- -- 81
2019-09-27 20:00:00 25.3 11 Este 23 Este 0 -- -- 75
2019-09-27 19:00:00 27.5 14 Este 23 Sudeste 0 -- -- 68
2019-09-27 18:00:00 30 14 Este 24 Este 0 -- -- 59
2019-09-27 17:00:00 31.2 10 Sudeste 18 Este 0 -- -- 44
2019-09-27 16:00:00 30.8 5 Sudeste 13 Sur 0 -- -- 45
2019-09-27 15:00:00 29.6 3 Noroeste 13 Sudoeste 0 -- -- 47
2019-09-27 14:00:00 28.5 7 Oeste 15 Sudoeste 0 -- -- 52
2019-09-27 13:00:00 26.7 11 Oeste 20 Oeste 0 -- -- 52
2019-09-27 12:00:00 24.2 11 Noroeste 21 Noroeste 0 -- -- 64
2019-09-27 11:00:00 21.6 13 Noroeste 25 Noroeste 0 -- -- 82
2019-09-27 10:00:00 19.6 14 Noroeste 26 Noroeste 0 -- -- 94
2019-09-27 09:00:00 18.9 13 Noroeste 23 Noroeste 0 -- -- 97
2019-09-27 08:00:00 18.6 10 Noroeste 16 Noroeste 0 -- -- 98
2019-09-27 07:00:00 18.8 7 Noroeste 17 Noroeste 0 -- -- 97
2019-09-27 06:00:00 18.9 7 Noroeste 12 Noroeste 0 -- -- 98
2019-09-27 05:00:00 18.6 3 Noroeste 7 Noroeste 0 -- -- 98
2019-09-27 04:00:00 18.4 3 Noroeste 6 Norte 0 -- -- 96
2019-09-27 03:00:00 18.8 0 Calma 5 Norte 0 -- -- 95
2019-09-27 02:00:00 19.3 4 Norte 6 Norte 0 -- -- 94
2019-09-27 01:00:00 20 0 Calma 2 Sudeste 0 -- -- 93
2019-09-27 00:00:00 20.7 0 Calma 8 Este 0 -- -- 90
2019-09-26 23:00:00 21.3 0 Calma 9 Este 0 -- -- 87
2019-09-26 22:00:00 22.1 5 Sudeste 9 Este 0 -- -- 84
2019-09-26 21:00:00 23.2 5 Sudeste 15 Sudeste 0 -- -- 77
2019-09-26 20:00:00 25.2 8 Sudeste 20 Sudeste 0 -- -- 72
2019-09-26 19:00:00 26.9 13 Sudeste 21 Sudeste 0 -- -- 62
2019-09-26 18:00:00 27.9 11 Sudeste 19 Sudeste 0 -- -- 60
2019-09-26 17:00:00 28.6 10 Sudeste 21 Este 0 -- -- 57
2019-09-26 16:00:00 28.3 9 Sur 18 Sudeste 0 -- -- 56
2019-09-26 15:00:00 27.9 9 Sudeste 18 Sudeste 0 -- -- 56
2019-09-26 14:00:00 26.8 7 Sur 17 Sudeste 0 -- -- 63
2019-09-26 13:00:00 25.4 9 Sudeste 19 Sudeste 0 -- -- 65
2019-09-26 12:00:00 24 5 Sudeste 12 Este 0 -- -- 73
2019-09-26 11:00:00 21.8 3 Este 7 Este 0 -- -- 80
2019-09-26 10:00:00 19.7 0 Calma 11 Norte 0 -- -- 89
2019-09-26 09:00:00 17.9 6 Noroeste 11 Noroeste 0 -- -- 97
2019-09-26 08:00:00 17.4 5 Sudoeste 8 Sudoeste 0 -- -- 95
2019-09-26 07:00:00 17.6 3 Noroeste 4 Noroeste 0 -- -- 95
2019-09-26 06:00:00 18.2 3 Este 8 Noroeste 0 -- -- 94
2019-09-26 05:00:00 18.5 6 Noroeste 8 Norte 0 -- -- 94
2019-09-26 04:00:00 18.3 5 Norte 8 Norte 0 -- -- 93
2019-09-26 03:00:00 18.7 3 Noroeste 5 Norte 0 -- -- 93
2019-09-26 02:00:00 19.3 3 Noroeste 5 Noroeste 0 -- -- 90
2019-09-26 01:00:00 20 0 Calma 6 Norte 0 -- -- 89
2019-09-26 00:00:00 21 0 Calma 10 Sudeste 0 -- -- 86
2019-09-25 23:00:00 21.8 7 Este 15 Este 0 -- -- 86
2019-09-25 22:00:00 22.4 10 Este 22 Este 0 -- -- 85
2019-09-25 21:00:00 23.1 14 Este 27 Este 0 -- -- 82
2019-09-25 20:00:00 24.5 17 Este 33 Este 0 -- -- 76
2019-09-25 19:00:00 27.1 21 Este 37 Este 0 -- -- 59
2019-09-25 18:00:00 30.5 15 Sur 26 Sur 0 -- -- 43
2019-09-25 17:00:00 32.1 8 Sudoeste 15 Sudoeste 0 -- -- 39
2019-09-25 16:00:00 31.2 8 Oeste 15 Oeste 0 -- -- 42
2019-09-25 15:00:00 29.9 5 Noroeste 23 Noroeste 0 -- -- 44
2019-09-25 14:00:00 29.3 15 Noroeste 30 Oeste 0 -- -- 47
2019-09-25 13:00:00 28.4 17 Noroeste 27 Oeste 0 -- -- 50
2019-09-25 12:00:00 27 14 Oeste 25 Noroeste 0 -- -- 55
2019-09-25 11:00:00 25.7 12 Oeste 23 Noroeste 0 -- -- 59
2019-09-25 10:00:00 22.8 7 Oeste 17 Oeste 0 -- -- 68
2019-09-25 09:00:00 20.5 9 Oeste 15 Oeste 0 -- -- 71
2019-09-25 08:00:00 19.7 3 Oeste 11 Oeste 0 -- -- 69
2019-09-25 07:00:00 20.3 4 Sudoeste 14 Oeste 0 -- -- 63
2019-09-25 06:00:00 21.9 8 Noroeste 25 Noroeste 0 -- -- 60
2019-09-25 05:00:00 22.1 13 Oeste 25 Noroeste 0 -- -- 55
2019-09-25 04:00:00 21.7 14 Noroeste 22 Oeste 0 -- -- 57
2019-09-25 03:00:00 19.7 6 Noroeste 11 Oeste 0 -- -- 69
2019-09-25 02:00:00 19.5 4 Sudoeste 9 Noroeste 0 -- -- 77
2019-09-25 01:00:00 19.7 5 Noroeste 7 Noroeste 0 -- -- 80
2019-09-25 00:00:00 20.2 6 Norte 9 Norte 0 -- -- 82
2019-09-24 23:00:00 21.1 5 Noroeste 8 Noroeste 0 -- -- 78
2019-09-24 22:00:00 22.6 4 Norte 8 Noroeste 0 -- -- 72
2019-09-24 21:00:00 24.6 6 Noroeste 11 Sudoeste 0 -- -- 64
2019-09-24 20:00:00 28.4 8 Oeste 18 Sudoeste 0 -- -- 50
2019-09-24 19:00:00 31.7 11 Sudoeste 19 Sudoeste 0 -- -- 40
2019-09-24 18:00:00 31.5 8 Sudoeste 21 Sudoeste 0 -- -- 35
2019-09-24 17:00:00 31.8 10 Oeste 20 Sudoeste 0 -- -- 35
2019-09-24 16:00:00 30.9 8 Sudoeste 20 Sudoeste 0 -- -- 37
2019-09-24 15:00:00 30.2 9 Oeste 19 Oeste 0 -- -- 39
2019-09-24 14:00:00 29.1 15 Oeste 26 Oeste 0 -- -- 37
2019-09-24 13:00:00 27.1 14 Oeste 23 Noroeste 0 -- -- 42
2019-09-24 12:00:00 24.3 16 Noroeste 28 Noroeste 0 -- -- 51
2019-09-24 11:00:00 22.1 15 Noroeste 28 Noroeste 0 -- -- 61
2019-09-24 10:00:00 20.3 12 Noroeste 27 Noroeste 0 -- -- 68
2019-09-24 09:00:00 18.5 13 Noroeste 21 Noroeste 0 -- -- 76
2019-09-24 08:00:00 17.8 11 Oeste 19 Oeste 0 -- -- 80
2019-09-24 07:00:00 17.9 9 Noroeste 18 Noroeste 0 -- -- 85
2019-09-24 06:00:00 17.4 4 Oeste 11 Noroeste 0 -- -- 91
2019-09-24 05:00:00 17.4 10 Norte 14 Noroeste 0 -- -- 93
2019-09-24 04:00:00 17.3 4 Noroeste 8 Norte 0 -- -- 92
2019-09-24 03:00:00 17.7 5 Norte 8 Norte 0 -- -- 92
2019-09-24 02:00:00 18.1 4 Noroeste 5 Noroeste 0 -- -- 91
2019-09-24 01:00:00 18.7 0 Calma 5 Noroeste 0 -- -- 89
2019-09-24 00:00:00 19.7 3 Norte 6 Este 0 -- -- 86
2019-09-23 23:00:00 20.5 3 Norte 10 Este 0 -- -- 84
2019-09-23 22:00:00 21.6 5 Este 12 Este 0 -- -- 79
2019-09-23 21:00:00 22.5 8 Este 16 Este 0 -- -- 75
2019-09-23 20:00:00 23.8 9 Este 22 Este 0 -- -- 69
2019-09-23 19:00:00 26.9 12 Este 20 Este 0 -- -- 57
2019-09-23 18:00:00 28.2 2 Oeste 13 Sudoeste 0 -- -- 46
2019-09-23 17:00:00 28.7 6 Sudoeste 15 Sudoeste 0 -- -- 45
2019-09-23 16:00:00 28.3 6 Noroeste 17 Oeste 0 -- -- 44
2019-09-23 15:00:00 28.2 6 Oeste 17 Noroeste 0 -- -- 42
2019-09-23 14:00:00 27.1 8 Oeste 17 Oeste 0 -- -- 46
2019-09-23 13:00:00 25.5 9 Noroeste 18 Noroeste 0 -- -- 49
2019-09-23 12:00:00 23.8 9 Noroeste 27 Noroeste 0 -- -- 54
2019-09-23 11:00:00 21.7 18 Noroeste 29 Noroeste 0 -- -- 59
2019-09-23 10:00:00 20.6 17 Noroeste 28 Noroeste 0 -- -- 62
2019-09-23 09:00:00 19.2 16 Noroeste 28 Noroeste 0 -- -- 64
2019-09-23 08:00:00 18.8 12 Noroeste 25 Oeste 0 -- -- 64
2019-09-23 07:00:00 19.2 11 Noroeste 21 Noroeste 0 -- -- 62
2019-09-23 06:00:00 18.9 6 Noroeste 12 Noroeste 0 -- -- 65
2019-09-23 05:00:00 20.4 7 Noroeste 16 Noroeste 0 -- -- 60
2019-09-23 04:00:00 21.3 9 Norte 30 Noroeste 0 -- -- 56
2019-09-23 03:00:00 22.8 20 Noroeste 36 Noroeste 0 -- -- 51
2019-09-23 02:00:00 23.4 23 Noroeste 40 Noroeste 0 -- -- 54
2019-09-23 01:00:00 24 19 Noroeste 32 Noroeste 0 -- -- 55
2019-09-23 00:00:00 24.3 19 Noroeste 30 Noroeste 0 -- -- 54
2019-09-22 23:00:00 23.4 3 Nordeste 13 Norte 0 -- -- 62
2019-09-22 22:00:00 24.4 3 Noroeste 9 Nordeste 0 -- -- 72
2019-09-22 21:00:00 25.9 6 Nordeste 12 Este 0 -- -- 72
2019-09-22 20:00:00 27.7 3 Sur 14 Sudeste 0 -- -- 65
2019-09-22 19:00:00 29.2 6 Sur 14 Norte 0 -- -- 57
2019-09-22 18:00:00 30.4 7 Noroeste 18 Noroeste 0 -- -- 47
2019-09-22 17:00:00 31 9 Oeste 16 Oeste 0 -- -- 41
2019-09-22 16:00:00 30.6 6 Oeste 18 Noroeste 0 -- -- 42
2019-09-22 15:00:00 29.6 7 Noroeste 21 Noroeste 0 -- -- 47
2019-09-22 14:00:00 29 10 Oeste 21 Noroeste 0 -- -- 48
2019-09-22 13:00:00 27.5 12 Noroeste 28 Noroeste 0 -- -- 58
2019-09-22 12:00:00 26 18 Noroeste 27 Noroeste 0 -- -- 62
2019-09-22 11:00:00 24 14 Noroeste 26 Noroeste 0 -- -- 77
2019-09-22 10:00:00 22.3 6 Noroeste 15 Noroeste 0 -- -- 88
2019-09-22 09:00:00 20.6 6 Noroeste 12 Norte 0 -- -- 96
2019-09-22 08:00:00 19.9 4 Noroeste 6 Noroeste 0 -- -- 96
2019-09-22 07:00:00 20.4 2 Norte 7 Norte 0 -- -- 96
2019-09-22 06:00:00 20.4 5 Noroeste 8 Noroeste 0 -- -- 96
2019-09-22 05:00:00 20.8 0 Calma 9 Norte 0 -- -- 94
2019-09-22 04:00:00 21.3 0 Calma 4 Sur 0 -- -- 93
2019-09-22 03:00:00 21.4 0 Calma 5 Noroeste 0 -- -- 92
2019-09-22 02:00:00 21.7 4 Norte 10 Noroeste 0 -- -- 91
2019-09-22 01:00:00 22.3 5 Noroeste 10 Oeste 0 -- -- 89
2019-09-22 00:00:00 22.6 2 Noroeste 8 Noroeste 0 -- -- 87
2019-09-21 23:00:00 22.8 6 Noroeste 8 Noroeste 0 -- -- 86
2019-09-21 22:00:00 23.1 0 Calma 6 Oeste 0 -- -- 85
2019-09-21 21:00:00 23.9 5 Oeste 13 Norte 0 -- -- 82
2019-09-21 20:00:00 25.2 6 Oeste 15 Oeste 0 -- -- 73
2019-09-21 19:00:00 26.3 0 Calma 6 Oeste 0 -- -- 67
2019-09-21 18:00:00 26.7 4 Sudoeste 14 Sudoeste 0 -- -- 61
2019-09-21 17:00:00 27 5 Oeste 11 Oeste 0 -- -- 62
2019-09-21 16:00:00 27.1 6 Oeste 13 Sur 0 -- -- 63
2019-09-21 15:00:00 27.2 8 Sudoeste 15 Sudoeste 0 -- -- 62
2019-09-21 14:00:00 27.3 6 Oeste 15 Sudoeste 0 -- -- 62
2019-09-21 13:00:00 26.9 9 Sudoeste 17 Sudoeste 0 -- -- 64
2019-09-21 12:00:00 25.2 8 Oeste 19 Oeste 0 -- -- 75
2019-09-21 11:00:00 23.7 8 Sudoeste 19 Oeste 0 -- -- 83
2019-09-21 10:00:00 22.1 9 Noroeste 16 Noroeste 0 -- -- 87
2019-09-21 09:00:00 21 9 Norte 13 Norte 0 -- -- 92
2019-09-21 08:00:00 20.3 8 Norte 12 Norte 0 -- -- 94
2019-09-21 07:00:00 20.5 5 Noroeste 10 Norte 0 -- -- 94
2019-09-21 06:00:00 20.6 5 Norte 10 Norte 0 -- -- 95
2019-09-21 05:00:00 20.6 4 Oeste 6 Oeste 0 -- -- 96
2019-09-21 04:00:00 20.4 5 Nordeste 8 Norte 0 -- -- 95
2019-09-21 03:00:00 21.1 4 Nordeste 6 Norte 0 -- -- 95
2019-09-21 02:00:00 21.5 4 Norte 7 Nordeste 0 -- -- 95
2019-09-21 01:00:00 21.5 5 Este 9 Nordeste 0 -- -- 95
2019-09-21 00:00:00 21.5 5 Nordeste 12 Sudeste 0 -- -- 95
2019-09-20 23:00:00 21.7 9 Sudeste 19 Este 0 -- -- 93
2019-09-20 22:00:00 22.2 12 Este 22 Este 0 -- -- 91
2019-09-20 21:00:00 22.6 4 Este 21 Este 0 -- -- 88
2019-09-20 20:00:00 23.2 13 Este 25 Sudeste 0 -- -- 85
2019-09-20 19:00:00 23.9 14 Sudeste 30 Sudeste 0 -- -- 80
2019-09-20 18:00:00 24.3 17 Sudeste 31 Este 0 -- -- 77
2019-09-20 17:00:00 25.1 19 Este 31 Este 0 -- -- 75
2019-09-20 16:00:00 25.4 20 Sudeste 35 Este 0 -- -- 73
2019-09-20 15:00:00 26.4 20 Sudeste 35 Este 0 -- -- 71
2019-09-20 14:00:00 26.9 18 Sudeste 29 Sudeste 0 -- -- 69
2019-09-20 13:00:00 25.2 12 Sudeste 27 Sudeste 0 -- -- 73
2019-09-20 12:00:00 24.8 13 Este 27 Este 0 -- -- 76
2019-09-20 11:00:00 23.7 11 Sudeste 19 Sudeste 0 -- -- 84
2019-09-20 10:00:00 22.1 2 Sur 8 Nordeste 0 -- -- 89
2019-09-20 09:00:00 21 5 Nordeste 9 Nordeste 0 -- -- 93
2019-09-20 08:00:00 20.3 3 Nordeste 9 Nordeste 0 -- -- 94
2019-09-20 07:00:00 20.6 4 Norte 6 Norte 0 -- -- 96
2019-09-20 06:00:00 20.7 0 Calma 4 Noroeste 0 -- -- 95
2019-09-20 05:00:00 20.5 0 Calma 3 Nordeste 0 -- -- 94
2019-09-20 04:00:00 20.7 2 Norte 4 Nordeste 0 -- -- 94
2019-09-20 03:00:00 20.8 0 Calma 5 Nordeste 0 -- -- 94
2019-09-20 02:00:00 20.6 2 Nordeste 5 Este 0 -- -- 94
2019-09-20 01:00:00 20.5 0 Calma 4 Nordeste 0 -- -- 94
2019-09-20 00:00:00 20.9 0 Calma 10 Este 0 -- -- 91
2019-09-19 23:00:00 21.5 3 Este 12 Este 0 -- -- 90
2019-09-19 22:00:00 22.1 8 Este 14 Este 0 -- -- 87
2019-09-19 21:00:00 22.7 5 Este 15 Sudeste 0 -- -- 77
2019-09-19 20:00:00 24.3 10 Este 22 Este 0 -- -- 69
2019-09-19 19:00:00 26.1 12 Este 22 Este 0 -- -- 64
2019-09-19 18:00:00 27.1 14 Este 22 Este 0 -- -- 57
2019-09-19 17:00:00 27.7 10 Sudeste 22 Este 0 -- -- 56
2019-09-19 16:00:00 27.4 9 Este 21 Este 0 -- -- 60
2019-09-19 15:00:00 27.4 12 Este 23 Nordeste 0 -- -- 65
2019-09-19 14:00:00 27.2 10 Este 22 Este 0 -- -- 62
2019-09-19 13:00:00 26.6 10 Sudeste 19 Sudeste 0 -- -- 64
2019-09-19 12:00:00 25.1 9 Sudeste 16 Sudeste 0 -- -- 66
2019-09-19 11:00:00 22.2 0 Calma 6 Norte 0 -- -- 69
2019-09-19 10:00:00 19.9 3 Norte 7 Oeste 0 -- -- 87
2019-09-19 09:00:00 17.8 4 Oeste 8 Noroeste 0 -- -- 96
2019-09-19 08:00:00 16.9 5 Noroeste 10 Norte 0 -- -- 93
2019-09-19 07:00:00 16.9 2 Norte 7 Norte 0 -- -- 94
2019-09-19 06:00:00 17.4 7 Noroeste 8 Noroeste 0 -- -- 94
2019-09-19 05:00:00 18 3 Noroeste 6 Norte 0 -- -- 96
2019-09-19 04:00:00 18.1 5 Noroeste 7 Norte 0 -- -- 94
2019-09-19 03:00:00 18.7 0 Calma 3 Sudoeste 0 -- -- 95
2019-09-19 02:00:00 19.3 3 Noroeste 6 Norte 0 -- -- 93
2019-09-19 01:00:00 19.9 4 Noroeste 7 Norte 0 -- -- 93
2019-09-19 00:00:00 20.7 2 Este 5 Nordeste 0 -- -- 91
2019-09-18 23:00:00 21.5 0 Calma 5 Este 0 -- -- 88
2019-09-18 22:00:00 22.3 0 Calma 12 Este 0 -- -- 84
2019-09-18 21:00:00 23.2 9 Este 16 Este 0 -- -- 78
2019-09-18 20:00:00 24.6 9 Este 19 Este 0 -- -- 70
2019-09-18 19:00:00 26.6 12 Este 23 Este 0 -- -- 63
2019-09-18 18:00:00 28.3 14 Este 23 Sudeste 0 -- -- 59
2019-09-18 17:00:00 29.3 13 Sudeste 22 Sudeste 0 -- -- 57
2019-09-18 16:00:00 29.7 10 Este 22 Sudeste 0 -- -- 54
2019-09-18 15:00:00 29.2 4 Sur 14 Este 0 -- -- 54
2019-09-18 14:00:00 28 6 Sudeste 14 Sudeste 0 -- -- 59
2019-09-18 13:00:00 26.8 5 Este 13 Sudeste 0 -- -- 68
2019-09-18 12:00:00 25 3 Nordeste 11 Norte 0 -- -- 73
2019-09-18 11:00:00 23.6 8 Norte 12 Noroeste 0 -- -- 80
2019-09-18 10:00:00 21.4 6 Noroeste 14 Oeste 0 -- -- 87
2019-09-18 09:00:00 19.9 9 Noroeste 18 Noroeste 0 -- -- 92
2019-09-18 08:00:00 19.4 12 Noroeste 17 Noroeste 0 -- -- 91
2019-09-18 07:00:00 19.5 2 Oeste 17 Norte 0 -- -- 95
2019-09-18 06:00:00 19.6 7 Noroeste 14 Noroeste 0 -- -- 94
2019-09-18 05:00:00 19.7 8 Noroeste 15 Noroeste 0 -- -- 94
2019-09-18 04:00:00 19.5 0 Calma 6 Noroeste 0 -- -- 96
2019-09-18 03:00:00 20.1 8 Noroeste 14 Noroeste 0 -- -- 96
2019-09-18 02:00:00 20 2 Noroeste 6 Noroeste 0 -- -- 96
2019-09-18 01:00:00 20.5 4 Noroeste 6 Noroeste 0 -- -- 96
2019-09-18 00:00:00 21.1 2 Noroeste 8 Noroeste 0 -- -- 95
2019-09-17 23:00:00 21.7 3 Norte 7 Nordeste 0 -- -- 93
2019-09-17 22:00:00 22.3 3 Norte 10 Sudeste 0 -- -- 92
2019-09-17 21:00:00 23.1 6 Este 10 Sudeste 0 -- -- 89
2019-09-15 18:00:00 27.6 15 Sudeste 25 Este 0 -- -- 71
2019-09-15 17:00:00 27.6 16 Sudeste 26 Sudeste 0 -- -- 71
2019-09-15 16:00:00 28.6 12 Sudeste 19 Sudeste 0 -- -- 66
2019-09-15 15:00:00 29.1 5 Sudoeste 15 Sudoeste 0 -- -- 60
2019-09-15 14:00:00 28.3 5 Oeste 14 Oeste 0 -- -- 63
2019-09-15 13:00:00 26.8 9 Noroeste 23 Noroeste 0 -- -- 70
2019-09-15 12:00:00 25.3 14 Noroeste 24 Oeste 0 -- -- 74
2019-09-15 11:00:00 24 16 Noroeste 23 Noroeste 0 -- -- 80
2019-09-15 10:00:00 22.2 18 Noroeste 25 Noroeste 0 -- -- 86
2019-09-15 09:00:00 20.5 12 Norte 18 Norte 0 -- -- 91
2019-09-15 08:00:00 20 12 Norte 17 Norte 0 -- -- 91
2019-09-15 07:00:00 20.3 11 Norte 23 Norte 0 -- -- 90
2019-09-15 06:00:00 20.2 15 Norte 22 Norte 0 -- -- 91
2019-09-15 05:00:00 20.1 12 Norte 18 Norte 0 -- -- 91
2019-09-15 04:00:00 19.9 12 Norte 18 Norte 0 -- -- 92
2019-09-15 03:00:00 19.8 6 Oeste 10 Oeste 0 -- -- 93
2019-09-15 02:00:00 20.1 5 Norte 9 Nordeste 0 -- -- 93
2019-09-15 01:00:00 20.4 8 Norte 12 Norte 0 -- -- 91
2019-09-15 00:00:00 20.8 7 Noroeste 9 Norte 0 -- -- 90